Valle de Tierras Nuevas, Puerto Rico
Current Conditions -  °F | °C
As of 10:56 AM on Friday 19 Dec 2014 (Local Time) from TJSJ Reporting Station
Scattered Clouds Scattered Clouds  
Wind Chill: 81°   Ceiling: Unl
Heat Index: 84°   Visibility: 10mi
Dew Point: 69°   Wind: 15mph
Humidity: 67%   Direction: 50°NE
Pressure: 30.02"   Gusts: NA
Location:  18.4259°N, 66.4717°W
Report Text: TJSJ 191456Z 05013KT 10SM SCT042 27/21 A3002 RMK AO2 SLP163 T02720206 50009
Loading
Personal Weather Stations






























Interactive Weather Map New forecast layout! Learn more

10-Day Weather Forecast

Advertisements
Track Severe Weather on mobile